Time;durP1;ratioP1;P1;durP2;ratioP2;P2;SDS_P1;SDS_P2;PMS_P1;PMS_P2;Temp;Humidity;BMP_temperature;BMP_pressure;BME280_temperature;BME280_humidity;BME280_pressure;Samples;Min_cycle;Max_cycle;Signal;HPM_P1;HPM_P2
2023/01/28 00:00:45;;;;;;;;;;;;;;;0.84;100.00;100439.53;5589673;31;34245;-69
2023/01/28 00:03:54;;;;;;;;;;;;;;;0.92;100.00;100444.22;5589720;31;34942;-68
2023/01/28 00:07:01;;;;;;;;;;;;;;;0.77;100.00;100442.69;5574972;31;34742;-68
2023/01/28 00:10:09;;;;;;;;;;;;;;;0.97;100.00;100449.16;5589230;31;34299;-68
2023/01/28 00:13:17;;;;;;;;;;;;;;;0.88;100.00;100450.59;5589418;31;34589;-68
2023/01/28 00:16:29;;;;;;;;;;;;;;;1.00;100.00;100449.78;5576569;31;35005;-68
2023/01/28 00:19:42;;;;;;;;;;;;;;;0.98;100.00;100451.66;5589336;31;34913;-69
2023/01/28 00:22:52;;;;;;;;;;;;;;;0.93;100.00;100452.91;5576443;31;34897;-68
2023/01/28 00:26:02;;;;;;;;;;;;;;;0.93;100.00;100445.91;5589242;31;34337;-68
2023/01/28 00:29:11;;;;;;;;;;;;;;;0.86;100.00;100460.34;5589098;31;34320;-68
2023/01/28 00:32:20;;;;;;;;;;;;;;;0.90;100.00;100458.34;5589272;31;34892;-68
2023/01/28 00:35:29;;;;;;;;;;;;;;;1.07;100.00;100460.63;5575935;31;34318;-68
2023/01/28 00:38:37;;;;;;;;;;;;;;;1.07;100.00;100461.47;5589081;31;34302;-69
2023/01/28 00:41:46;;;;;;;;;;;;;;;1.09;100.00;100461.38;5589008;31;34245;-68
2023/01/28 00:44:54;;;;;;;;;;;;;;;0.97;100.00;100460.41;5575817;31;34329;-68
2023/01/28 00:48:05;;;;;;;;;;;;;;;1.04;100.00;100471.28;5588882;31;34272;-68
2023/01/28 00:51:12;;;;;;;;;;;;;;;0.95;100.00;100466.69;5575307;31;34236;-68
2023/01/28 00:54:22;;;;;;;;;;;;;;;1.03;100.00;100467.84;5588724;31;34816;-68
2023/01/28 00:57:32;;;;;;;;;;;;;;;1.12;100.00;100469.81;5575792;31;35073;-68
2023/01/28 01:00:42;;;;;;;;;;;;;;;1.02;100.00;100471.37;5588656;31;34605;-68
2023/01/28 01:04:01;;;;;;;;;;;;;;;1.07;100.00;100479.75;5588575;31;34860;-68
2023/01/28 01:07:12;;;;;;;;;;;;;;;0.98;100.00;100472.53;5588381;31;34091;-68
2023/01/28 01:10:22;;;;;;;;;;;;;;;0.98;100.00;100475.16;5588355;31;34727;-68
2023/01/28 01:13:29;;;;;;;;;;;;;;;1.00;100.00;100473.28;5588699;31;34748;-68
2023/01/28 01:16:42;;;;;;;;;;;;;;;1.07;100.00;100474.53;5588390;31;34837;-68
2023/01/28 01:19:51;;;;;;;;;;;;;;;1.04;100.00;100477.34;5576965;31;35026;-69
2023/01/28 01:22:57;;;;;;;;;;;;;;;1.00;100.00;100478.50;5590809;31;34503;-68
2023/01/28 01:26:08;;;;;;;;;;;;;;;0.96;100.00;100481.44;5591022;31;35059;-68
2023/01/28 01:29:14;;;;;;;;;;;;;;;1.06;100.00;100475.50;5590997;31;34267;-68
2023/01/28 01:32:21;;;;;;;;;;;;;;;1.06;100.00;100477.25;5577710;31;34213;-68
2023/01/28 01:35:32;;;;;;;;;;;;;;;1.07;100.00;100481.53;5590912;31;34908;-68
2023/01/28 01:38:41;;;;;;;;;;;;;;;1.09;100.00;100479.66;5577720;31;34380;-68
2023/01/28 01:41:46;;;;;;;;;;;;;;;1.10;100.00;100481.31;5577484;31;34937;-68
2023/01/28 01:45:11;;;;;;;;;;;;;;;0.98;100.00;100477.75;5590926;31;34247;-68
2023/01/28 01:48:21;;;;;;;;;;;;;;;0.93;100.00;100474.63;5577472;31;34286;-68
2023/01/28 01:51:30;;;;;;;;;;;;;;;0.90;100.00;100477.47;5590863;31;34399;-68
2023/01/28 01:54:38;;;;;;;;;;;;;;;0.90;100.00;100484.47;5577667;31;34460;-68
2023/01/28 01:57:46;;;;;;;;;;;;;;;0.96;100.00;100495.34;5577856;31;34201;-69
2023/01/28 02:00:56;;;;;;;;;;;;;;;1.02;100.00;100486.22;5590780;31;34934;-68
2023/01/28 02:04:06;;;;;;;;;;;;;;;0.97;100.00;100483.12;5565261;31;34030;-69
2023/01/28 02:07:15;;;;;;;;;;;;;;;0.99;100.00;100486.44;5590672;31;34479;-68
2023/01/28 02:10:23;;;;;;;;;;;;;;;0.95;100.00;100488.44;5551542;32;33858;-68
2023/01/28 02:13:42;;;;;;;;;;;;;;;1.01;100.00;100484.56;5538550;32;33093;-68
2023/01/28 02:16:53;;;;;;;;;;;;;;;0.82;100.00;100480.56;5551512;32;34834;-68
2023/01/28 02:20:05;;;;;;;;;;;;;;;0.88;100.00;100485.38;5563160;32;34716;-68
2023/01/28 02:23:17;;;;;;;;;;;;;;;0.87;100.00;100481.09;5551479;32;34227;-68
2023/01/28 02:26:29;;;;;;;;;;;;;;;0.86;100.00;100482.06;5551205;32;34299;-68
2023/01/28 02:29:40;;;;;;;;;;;;;;;0.82;100.00;100479.75;5551071;32;34241;-69
2023/01/28 02:32:57;;;;;;;;;;;;;;;0.80;100.00;100474.63;5551027;32;34972;-70
2023/01/28 02:36:13;;;;;;;;;;;;;;;0.71;100.00;100469.19;5551391;32;34351;-68
2023/01/28 02:39:26;;;;;;;;;;;;;;;0.80;100.00;100474.63;5551306;32;34661;-68
2023/01/28 02:42:35;;;;;;;;;;;;;;;0.78;100.00;100471.28;5563119;32;34694;-68
2023/01/28 02:49:13;;;;;;;;;;;;;;;0.73;100.00;100470.75;5551496;32;34585;-68
2023/01/28 02:56:19;;;;;;;;;;;;;;;0.73;100.00;100470.75;5551145;32;34349;-68
2023/01/28 02:59:35;;;;;;;;;;;;;;;0.68;100.00;100474.59;5550144;32;34567;-68
2023/01/28 03:02:45;;;;;;;;;;;;;;;0.68;100.00;100470.22;5550244;32;34282;-69
2023/01/28 03:06:08;;;;;;;;;;;;;;;0.63;100.00;100468.88;5550944;32;34948;-68
2023/01/28 03:09:24;;;;;;;;;;;;;;;0.73;100.00;100472.53;5569508;31;34801;-68
2023/01/28 03:36:48;;;;;;;;;;;;;;;0.61;100.00;100463.75;5570294;32;34942;-68
2023/01/28 03:40:01;;;;;;;;;;;;;;;0.72;100.00;100478.72;5569536;32;34498;-68
2023/01/28 03:43:09;;;;;;;;;;;;;;;0.63;100.00;100476.72;5570132;32;34912;-68
2023/01/28 03:46:16;;;;;;;;;;;;;;;0.70;100.00;100486.62;5570263;32;34893;-68
2023/01/28 03:49:27;;;;;;;;;;;;;;;0.66;100.00;100476.50;5570179;32;34181;-68
2023/01/28 03:52:37;;;;;;;;;;;;;;;0.59;100.00;100481.28;5569423;32;34714;-69
2023/01/28 03:55:45;;;;;;;;;;;;;;;0.54;100.00;100485.97;5570071;32;34333;-68
2023/01/28 03:58:56;;;;;;;;;;;;;;;0.57;100.00;100484.94;5570510;32;34225;-68
2023/01/28 04:02:07;;;;;;;;;;;;;;;0.59;100.00;100481.28;5569377;32;34295;-68
2023/01/28 04:05:14;;;;;;;;;;;;;;;0.57;100.00;100477.13;5556738;32;33523;-68
2023/01/28 04:08:21;;;;;;;;;;;;;;;0.57;100.00;100487.56;5504727;31;2291354;-69
2023/01/28 04:11:29;;;;;;;;;;;;;;;0.56;100.00;100486.72;5589420;31;34916;-68
2023/01/28 04:14:38;;;;;;;;;;;;;;;0.55;100.00;100478.97;5576268;31;34960;-68
2023/01/28 04:17:49;;;;;;;;;;;;;;;0.49;100.00;100479.38;5589507;31;34470;-68
2023/01/28 04:20:59;;;;;;;;;;;;;;;0.60;100.00;100485.56;5589434;31;34893;-68
2023/01/28 04:24:07;;;;;;;;;;;;;;;0.58;100.00;100478.78;5576149;31;34913;-68
2023/01/28 04:27:15;;;;;;;;;;;;;;;0.65;100.00;100485.25;5589294;31;33758;-69
2023/01/28 04:30:28;;;;;;;;;;;;;;;0.64;100.00;100487.03;5589083;31;34220;-69
2023/01/28 04:33:39;;;;;;;;;;;;;;;0.56;100.00;100494.56;5589107;31;34902;-68
2023/01/28 04:36:49;;;;;;;;;;;;;;;0.63;100.00;100492.38;5589086;31;34976;-68
2023/01/28 04:39:58;;;;;;;;;;;;;;;0.63;100.00;100495.81;5589100;31;34556;-68
2023/01/28 04:43:13;;;;;;;;;;;;;;;0.58;100.00;100494.47;5588925;31;34892;-68
2023/01/28 04:46:21;;;;;;;;;;;;;;;0.57;100.00;100491.00;5588962;31;34477;-68
2023/01/28 04:49:31;;;;;;;;;;;;;;;0.56;100.00;100501.53;5588765;31;34992;-68
2023/01/28 04:52:40;;;;;;;;;;;;;;;0.55;100.00;100503.31;5588734;31;34966;-68
2023/01/28 04:55:49;;;;;;;;;;;;;;;0.56;100.00;100509.38;5591081;31;34133;-68
2023/01/28 04:58:56;;;;;;;;;;;;;;;0.59;100.00;100502.16;5577954;31;34853;-67
2023/01/28 05:02:03;;;;;;;;;;;;;;;0.56;100.00;100506.75;5591329;31;34181;-68
2023/01/28 05:05:12;;;;;;;;;;;;;;;0.60;100.00;100516.06;5591212;31;34264;-68
2023/01/28 05:08:21;;;;;;;;;;;;;;;0.54;100.00;100511.22;5590791;31;34395;-67
2023/01/28 05:11:28;;;;;;;;;;;;;;;0.62;100.00;100515.03;5591011;31;34632;-68
2023/01/28 05:14:39;;;;;;;;;;;;;;;0.64;100.00;100507.91;5591142;31;34315;-68
2023/01/28 05:17:47;;;;;;;;;;;;;;;0.64;100.00;100523.59;5577837;31;34738;-69
2023/01/28 05:20:58;;;;;;;;;;;;;;;0.60;100.00;100526.50;5578138;31;35044;-68
2023/01/28 05:24:09;;;;;;;;;;;;;;;0.59;100.00;100514.38;5590965;31;34328;-68
2023/01/28 05:27:14;;;;;;;;;;;;;;;0.50;100.00;100530.66;5577557;31;34764;-68
2023/01/28 05:30:24;;;;;;;;;;;;;;;0.60;100.00;100531.72;5590862;31;34164;-69
2023/01/28 05:33:31;;;;;;;;;;;;;;;0.53;100.00;100531.31;5591027;31;34183;-68
2023/01/28 05:36:40;;;;;;;;;;;;;;;0.49;100.00;100531.56;5591317;31;34282;-68
2023/01/28 05:39:49;;;;;;;;;;;;;;;0.56;100.00;100535.47;5577723;31;35034;-68
2023/01/28 05:42:58;;;;;;;;;;;;;;;0.62;100.00;100528.09;5590954;31;34090;-68
2023/01/28 05:46:09;;;;;;;;;;;;;;;0.59;100.00;100538.72;5577855;31;34891;-68
2023/01/28 05:49:21;;;;;;;;;;;;;;;0.48;100.00;100545.59;5590638;31;34978;-68
2023/01/28 05:52:32;;;;;;;;;;;;;;;0.60;100.00;100550.84;5590814;31;34171;-68
2023/01/28 05:55:46;;;;;;;;;;;;;;;0.57;100.00;100540.59;5591077;31;33774;-68
2023/01/28 05:58:55;;;;;;;;;;;;;;;0.55;100.00;100547.69;5590728;31;34217;-68
2023/01/28 06:02:02;;;;;;;;;;;;;;;0.47;100.00;100549.97;5590624;31;34913;-68
2023/01/28 06:05:13;;;;;;;;;;;;;;;0.46;100.00;100555.28;5576753;31;34865;-68
2023/01/28 06:08:20;;;;;;;;;;;;;;;0.43;100.00;100553.72;5577181;31;34322;-68
2023/01/28 06:11:28;;;;;;;;;;;;;;;0.49;100.00;100555.06;5590373;31;35065;-68
2023/01/28 06:14:37;;;;;;;;;;;;;;;0.37;100.00;100560.16;5577370;31;34342;-68
2023/01/28 06:17:50;;;;;;;;;;;;;;;0.39;100.00;100560.88;5590575;31;35045;-68
2023/01/28 06:20:59;;;;;;;;;;;;;;;0.30;100.00;100564.09;5590489;31;34280;-68
2023/01/28 06:24:06;;;;;;;;;;;;;;;0.29;100.00;100569.44;5590849;31;34454;-67
2023/01/28 06:27:13;;;;;;;;;;;;;;;0.24;100.00;100572.28;5590641;31;34928;-69
2023/01/28 06:30:20;;;;;;;;;;;;;;;0.30;100.00;100577.13;5590521;31;34109;-68
2023/01/28 06:33:29;;;;;;;;;;;;;;;0.30;100.00;100571.06;5590431;31;34891;-68
2023/01/28 06:36:36;;;;;;;;;;;;;;;0.31;100.00;100583.19;5590885;31;34241;-68
2023/01/28 06:39:44;;;;;;;;;;;;;;;0.29;100.00;100583.28;5563880;31;33344;-69
2023/01/28 06:42:51;;;;;;;;;;;;;;;0.33;100.00;100582.19;5590196;31;35107;-69
2023/01/28 06:45:58;;;;;;;;;;;;;;;0.38;100.00;100595.78;5590216;31;34653;-68
2023/01/28 06:49:04;;;;;;;;;;;;;;;0.32;100.00;100597.91;5590322;31;34273;-68
2023/01/28 06:52:12;;;;;;;;;;;;;;;0.29;100.00;100598.94;5590175;31;34235;-69
2023/01/28 06:55:20;;;;;;;;;;;;;;;0.25;100.00;100607.06;5590396;31;34870;-69
2023/01/28 06:58:27;;;;;;;;;;;;;;;0.30;100.00;100611.06;5577033;31;32963;-69
2023/01/28 07:01:33;;;;;;;;;;;;;;;0.31;100.00;100614.50;5576731;31;34229;-70
2023/01/28 07:04:39;;;;;;;;;;;;;;;0.32;100.00;100616.19;5576701;31;34165;-69
2023/01/28 07:07:49;;;;;;;;;;;;;;;0.31;100.00;100625.78;5589826;31;34350;-69
2023/01/28 07:10:59;;;;;;;;;;;;;;;0.31;100.00;100624.94;5590099;31;35580;-69
2023/01/28 07:14:09;;;;;;;;;;;;;;;0.24;100.00;100634.09;5590042;31;35155;-69
2023/01/28 07:17:15;;;;;;;;;;;;;;;0.25;100.00;100634.00;5562931;31;33578;-69
2023/01/28 07:20:23;;;;;;;;;;;;;;;0.26;100.00;100630.44;5576827;31;34275;-69
2023/01/28 07:23:30;;;;;;;;;;;;;;;0.26;100.00;100646.09;5563245;31;33040;-68
2023/01/28 07:26:43;;;;;;;;;;;;;;;0.27;100.00;100649.56;5589972;31;34373;-68
2023/01/28 07:29:52;;;;;;;;;;;;;;;0.33;100.00;100649.19;5590087;31;34498;-69
2023/01/28 07:33:04;;;;;;;;;;;;;;;0.31;100.00;100653.66;5575915;31;33072;-69
2023/01/28 07:36:12;;;;;;;;;;;;;;;0.25;100.00;100652.25;5563443;31;33967;-68
2023/01/28 07:39:20;;;;;;;;;;;;;;;0.35;100.00;100650.75;5590007;31;33744;-68
2023/01/28 07:42:29;;;;;;;;;;;;;;;0.38;100.00;100647.97;5575745;31;33030;-70
2023/01/28 07:45:40;;;;;;;;;;;;;;;0.45;100.00;100656.22;5576729;31;34814;-68
2023/01/28 07:48:52;;;;;;;;;;;;;;;0.37;100.00;100654.09;5589612;31;34198;-68
2023/01/28 07:51:59;;;;;;;;;;;;;;;0.47;100.00;100656.12;5589554;31;34363;-69
2023/01/28 07:55:10;;;;;;;;;;;;;;;0.38;100.00;100652.34;5589563;31;34809;-69
2023/01/28 07:58:20;;;;;;;;;;;;;;;0.38;100.00;100653.19;5576647;31;34297;-68
2023/01/28 08:01:30;;;;;;;;;;;;;;;0.38;100.00;100663.63;5589651;31;34887;-68
2023/01/28 08:04:46;;;;;;;;;;;;;;;0.44;100.00;100663.22;5589622;31;34953;-70
2023/01/28 08:07:52;;;;;;;;;;;;;;;0.56;100.00;100663.38;5589623;31;34891;-69
2023/01/28 08:11:10;;;;;;;;;;;;;;;0.61;100.00;100671.75;5576374;31;34210;-68
2023/01/28 08:14:17;;;;;;;;;;;;;;;0.64;100.00;100669.78;5589464;31;34836;-71
2023/01/28 08:17:24;;;;;;;;;;;;;;;0.63;100.00;100675.94;5576215;31;34691;-71
2023/01/28 08:20:34;;;;;;;;;;;;;;;0.58;100.00;100669.34;5589369;31;34410;-69
2023/01/28 08:23:42;;;;;;;;;;;;;;;0.57;100.00;100667.69;5576065;31;34312;-69
2023/01/28 08:26:50;;;;;;;;;;;;;;;0.71;100.00;100678.06;5575335;31;32665;-71
2023/01/28 08:30:01;;;;;;;;;;;;;;;0.66;100.00;100683.59;5588154;31;34505;-69
2023/01/28 08:33:11;;;;;;;;;;;;;;;0.59;100.00;100682.28;5575994;31;34235;-69
2023/01/28 08:36:19;;;;;;;;;;;;;;;0.78;100.00;100681.94;5576015;31;34180;-69
2023/01/28 08:39:33;;;;;;;;;;;;;;;0.82;100.00;100688.69;5589096;31;34895;-69
2023/01/28 08:42:50;;;;;;;;;;;;;;;0.83;100.00;100692.94;5589008;31;34197;-70
2023/01/28 08:45:56;;;;;;;;;;;;;;;0.87;100.00;100697.06;5575490;31;34843;-70
2023/01/28 08:49:04;;;;;;;;;;;;;;;0.98;100.00;100694.56;5575500;31;34632;-70
2023/01/28 08:52:10;;;;;;;;;;;;;;;1.01;100.00;100694.41;5575290;31;34499;-70
2023/01/28 08:55:17;;;;;;;;;;;;;;;1.05;100.00;100702.88;5588895;31;34214;-70
2023/01/28 08:58:23;;;;;;;;;;;;;;;0.94;100.00;100698.31;5575396;31;35401;-70
2023/01/28 09:01:33;;;;;;;;;;;;;;;0.90;100.00;100703.84;5588609;31;34334;-71
2023/01/28 09:04:41;;;;;;;;;;;;;;;0.71;100.00;100701.56;5575164;31;34634;-71
2023/01/28 09:07:52;;;;;;;;;;;;;;;0.88;100.00;100703.94;5575552;31;33834;-71
2023/01/28 09:11:00;;;;;;;;;;;;;;;1.04;100.00;100707.25;5588410;31;34410;-71
2023/01/28 09:14:10;;;;;;;;;;;;;;;1.08;100.00;100705.25;5575427;31;34802;-72
2023/01/28 09:17:17;;;;;;;;;;;;;;;1.20;100.00;100707.94;5575077;31;34727;-71
2023/01/28 09:20:25;;;;;;;;;;;;;;;1.26;100.00;100711.91;5574905;31;34515;-71
2023/01/28 09:23:36;;;;;;;;;;;;;;;1.45;100.00;100719.41;5574834;31;34816;-72
2023/01/28 09:26:43;;;;;;;;;;;;;;;1.54;100.00;100722.25;5588098;31;34460;-72
2023/01/28 09:29:52;;;;;;;;;;;;;;;1.51;100.00;100724.19;5588528;31;33176;-72
2023/01/28 09:32:59;;;;;;;;;;;;;;;1.54;100.00;100724.84;5574872;31;34813;-72
2023/01/28 09:36:08;;;;;;;;;;;;;;;1.41;100.00;100721.34;5588221;31;34885;-72
2023/01/28 09:39:15;;;;;;;;;;;;;;;1.53;100.00;100728.41;5588754;31;34340;-72
2023/01/28 09:42:50;;;;;;;;;;;;;;;1.65;100.00;100727.56;5577916;31;34672;-72
2023/01/28 09:45:58;;;;;;;;;;;;;;;1.58;100.00;100726.31;5590873;31;33757;-71
2023/01/28 09:49:30;;;;;;;;;;;;;;;1.54;100.00;100721.41;5590793;31;34941;-71
2023/01/28 09:52:39;;;;;;;;;;;;;;;1.56;100.00;100722.13;5589978;31;34650;-71
2023/01/28 09:55:53;;;;;;;;;;;;;;;1.54;100.00;100710.94;5577022;31;32867;-72
2023/01/28 09:59:18;;;;;;;;;;;;;;;1.44;100.00;100715.94;5590696;31;34979;-71
2023/01/28 10:02:37;;;;;;;;;;;;;;;1.52;100.00;100713.66;5590789;31;34241;-72
2023/01/28 10:05:46;;;;;;;;;;;;;;;1.74;100.00;100708.63;5590779;31;33815;-72
2023/01/28 10:09:02;;;;;;;;;;;;;;;1.71;100.00;100714.09;5590408;31;34352;-72
2023/01/28 10:12:20;;;;;;;;;;;;;;;1.90;100.00;100708.44;5577129;31;34765;-72
2023/01/28 10:15:47;;;;;;;;;;;;;;;2.12;100.00;100711.28;5576719;31;33925;-72
2023/01/28 10:19:00;;;;;;;;;;;;;;;2.25;100.00;100710.41;5577275;31;34637;-72
2023/01/28 10:22:16;;;;;;;;;;;;;;;2.28;100.00;100716.25;5577289;31;34921;-72
2023/01/28 10:25:28;;;;;;;;;;;;;;;2.33;100.00;100708.09;5590919;31;35065;-72
2023/01/28 10:28:33;;;;;;;;;;;;;;;2.64;100.00;100710.22;5590474;31;34702;-72
2023/01/28 10:31:43;;;;;;;;;;;;;;;2.80;100.00;100710.81;5590299;31;34208;-72
2023/01/28 10:34:50;;;;;;;;;;;;;;;2.50;100.00;100708.59;5590255;31;34783;-71
2023/01/28 10:38:01;;;;;;;;;;;;;;;2.81;100.00;100714.28;5576261;31;33818;-71
2023/01/28 10:41:06;;;;;;;;;;;;;;;2.71;100.00;100713.25;5590203;31;34368;-71
2023/01/28 10:44:30;;;;;;;;;;;;;;;2.63;100.00;100716.41;5589989;31;34598;-72
2023/01/28 10:47:42;;;;;;;;;;;;;;;2.86;100.00;100712.97;5590362;31;34319;-72
2023/01/28 10:50:55;;;;;;;;;;;;;;;2.95;100.00;100722.78;5589748;31;34330;-72
2023/01/28 10:54:04;;;;;;;;;;;;;;;3.11;100.00;100709.41;5576884;31;34195;-72
2023/01/28 10:57:13;;;;;;;;;;;;;;;3.27;100.00;100712.59;5576731;31;34383;-71
2023/01/28 11:00:24;;;;;;;;;;;;;;;3.45;100.00;100713.84;5590277;31;34196;-72
2023/01/28 11:03:34;;;;;;;;;;;;;;;3.75;100.00;100705.47;5590215;31;34364;-72
2023/01/28 11:06:40;;;;;;;;;;;;;;;3.90;100.00;100717.44;5590167;31;34241;-72
2023/01/28 11:09:50;;;;;;;;;;;;;;;3.36;100.00;100711.91;5590430;31;34319;-72
2023/01/28 11:12:57;;;;;;;;;;;;;;;3.44;100.00;100706.94;5590411;31;34461;-70
2023/01/28 11:16:16;;;;;;;;;;;;;;;3.64;100.00;100715.94;5590233;31;34402;-70
2023/01/28 11:19:28;;;;;;;;;;;;;;;3.66;100.00;100703.53;5576681;31;34270;-71
2023/01/28 11:22:39;;;;;;;;;;;;;;;3.34;100.00;100694.63;5589871;31;34235;-71
2023/01/28 11:25:42;;;;;;;;;;;;;;;3.48;100.00;100700.53;5589755;31;34371;-70
2023/01/28 11:28:51;;;;;;;;;;;;;;;3.47;100.00;100705.88;5589248;31;34566;-70
2023/01/28 11:31:57;;;;;;;;;;;;;;;3.41;100.00;100701.91;5576334;31;34101;-71
2023/01/28 11:35:06;;;;;;;;;;;;;;;3.56;100.00;100697.31;5590160;31;35482;-70
2023/01/28 11:38:20;;;;;;;;;;;;;;;3.73;100.00;100696.88;5589934;31;34349;-70
2023/01/28 11:41:30;;;;;;;;;;;;;;;3.44;100.00;100698.22;5576396;31;34594;-70
2023/01/28 11:44:39;;;;;;;;;;;;;;;3.53;100.00;100697.56;5589822;31;34343;-71
2023/01/28 11:48:03;;;;;;;;;;;;;;;3.43;100.00;100693.94;5589730;31;34548;-70
2023/01/28 11:51:28;;;;;;;;;;;;;;;3.81;100.00;100691.06;5590143;31;34238;-70
2023/01/28 11:54:40;;;;;;;;;;;;;;;3.83;100.00;100686.50;5576685;31;34860;-70
2023/01/28 11:57:59;;;;;;;;;;;;;;;4.47;100.00;100690.22;5575640;31;34335;-71
2023/01/28 12:01:09;;;;;;;;;;;;;;;4.41;100.00;100679.34;5576645;31;34404;-71
2023/01/28 12:04:15;;;;;;;;;;;;;;;4.53;100.00;100675.78;5588249;31;34245;-71
2023/01/28 12:07:22;;;;;;;;;;;;;;;4.19;100.00;100686.31;5576249;31;34558;-71
2023/01/28 12:10:45;;;;;;;;;;;;;;;4.52;100.00;100685.44;5569276;32;34609;-70
2023/01/28 12:14:13;;;;;;;;;;;;;;;4.12;100.00;100679.84;5569885;32;34951;-71
2023/01/28 12:17:24;;;;;;;;;;;;;;;4.46;100.00;100680.66;5569950;32;34348;-71
2023/01/28 12:20:31;;;;;;;;;;;;;;;4.23;100.00;100677.22;5569654;32;34378;-70
2023/01/28 12:23:52;;;;;;;;;;;;;;;4.74;100.00;100679.31;5568829;32;32841;-71
2023/01/28 12:27:20;;;;;;;;;;;;;;;4.52;100.00;100667.06;5569764;32;34327;-69
2023/01/28 12:30:30;;;;;;;;;;;;;;;4.70;100.00;100675.25;5569062;32;33844;-69
2023/01/28 12:33:45;;;;;;;;;;;;;;;4.64;100.00;100671.34;5569488;32;34812;-69
2023/01/28 12:37:02;;;;;;;;;;;;;;;4.93;99.16;100674.25;5569015;32;34409;-69
2023/01/28 12:40:17;;;;;;;;;;;;;;;4.11;100.00;100677.37;5568844;32;34206;-69
2023/01/28 12:43:24;;;;;;;;;;;;;;;4.15;100.00;100676.16;5569587;32;33945;-69
2023/01/28 12:46:47;;;;;;;;;;;;;;;4.35;100.00;100671.03;5569551;32;34205;-70
2023/01/28 12:50:01;;;;;;;;;;;;;;;4.70;100.00;100673.44;5569479;32;34167;-71
2023/01/28 12:53:18;;;;;;;;;;;;;;;4.69;98.71;100679.69;5568666;32;34375;-70
2023/01/28 12:56:25;;;;;;;;;;;;;;;4.43;99.38;100673.03;5568727;32;34085;-70
2023/01/28 12:59:33;;;;;;;;;;;;;;;4.86;97.76;100686.19;5568541;32;34371;-70
2023/01/28 13:02:41;;;;;;;;;;;;;;;4.75;95.19;100688.84;5569241;32;34844;-70
2023/01/28 13:05:51;;;;;;;;;;;;;;;4.90;95.41;100687.63;5569075;32;34415;-69
2023/01/28 13:09:11;;;;;;;;;;;;;;;4.75;94.69;100691.47;5579695;31;33417;-69
2023/01/28 13:12:17;;;;;;;;;;;;;;;4.29;100.00;100695.13;5588422;31;34243;-69
2023/01/28 13:15:25;;;;;;;;;;;;;;;4.45;95.76;100693.94;5589977;31;34218;-69
2023/01/28 13:18:33;;;;;;;;;;;;;;;4.30;97.82;100702.06;5591174;31;34473;-69
2023/01/28 13:21:42;;;;;;;;;;;;;;;4.40;96.40;100703.97;5591206;31;34344;-70
2023/01/28 13:24:53;;;;;;;;;;;;;;;4.47;95.05;100698.09;5591140;31;34892;-68
2023/01/28 13:28:03;;;;;;;;;;;;;;;4.31;96.33;100708.97;5590979;31;34872;-68
2023/01/28 13:31:16;;;;;;;;;;;;;;;4.70;91.39;100702.38;5591024;31;34857;-68
2023/01/28 13:34:39;;;;;;;;;;;;;;;4.80;89.35;100710.34;5577960;31;34299;-69
2023/01/28 13:37:50;;;;;;;;;;;;;;;4.86;90.08;100709.88;5577926;31;34512;-69
2023/01/28 13:41:05;;;;;;;;;;;;;;;4.21;95.11;100715.88;5577553;31;34414;-69
2023/01/28 13:44:31;;;;;;;;;;;;;;;4.27;95.61;100717.22;5577364;31;34761;-69
2023/01/28 13:47:43;;;;;;;;;;;;;;;4.63;90.49;100719.59;5577842;31;34579;-69
2023/01/28 13:50:54;;;;;;;;;;;;;;;4.25;92.07;100727.84;5577830;31;34258;-68
2023/01/28 13:54:11;;;;;;;;;;;;;;;4.09;93.50;100723.88;5564212;31;34456;-69
2023/01/28 13:57:20;;;;;;;;;;;;;;;4.22;95.29;100735.94;5590747;31;34934;-68
2023/01/28 14:00:28;;;;;;;;;;;;;;;4.13;93.55;100723.53;5590758;31;34221;-71
2023/01/28 14:03:38;;;;;;;;;;;;;;;4.30;92.57;100728.34;5590839;31;34384;-69
2023/01/28 14:06:43;;;;;;;;;;;;;;;4.50;94.85;100732.03;5577134;31;33802;-69
2023/01/28 14:09:58;;;;;;;;;;;;;;;4.32;94.24;100736.06;5590296;31;35102;-69
2023/01/28 14:13:26;;;;;;;;;;;;;;;4.28;93.48;100732.03;5590699;31;34351;-69
2023/01/28 14:16:41;;;;;;;;;;;;;;;4.12;95.84;100734.97;5566198;31;33659;-68
2023/01/28 14:19:47;;;;;;;;;;;;;;;3.88;97.92;100736.84;5590496;31;34902;-68
2023/01/28 14:22:57;;;;;;;;;;;;;;;3.89;99.08;100742.00;5576509;31;34923;-69
2023/01/28 14:26:07;;;;;;;;;;;;;;;3.84;100.00;100741.50;5589707;31;33766;-68
2023/01/28 14:29:18;;;;;;;;;;;;;;;3.90;100.00;100745.47;5590442;31;34254;-69
2023/01/28 14:32:28;;;;;;;;;;;;;;;3.65;100.00;100749.09;5590167;31;34750;-68
2023/01/28 14:35:39;;;;;;;;;;;;;;;3.51;100.00;100749.28;5590623;31;34286;-68
2023/01/28 14:38:47;;;;;;;;;;;;;;;3.58;100.00;100747.88;5590416;31;34822;-69
2023/01/28 14:41:54;;;;;;;;;;;;;;;3.41;100.00;100751.75;5590373;31;34491;-69
2023/01/28 14:45:14;;;;;;;;;;;;;;;3.33;100.00;100756.72;5590374;31;34988;-68
2023/01/28 14:48:24;;;;;;;;;;;;;;;3.16;100.00;100749.25;5590454;31;34554;-68
2023/01/28 14:51:32;;;;;;;;;;;;;;;3.01;100.00;100752.97;5590573;31;34217;-68
2023/01/28 14:54:50;;;;;;;;;;;;;;;3.00;100.00;100756.56;5590252;31;34360;-68
2023/01/28 14:57:58;;;;;;;;;;;;;;;2.85;100.00;100757.66;5590343;31;34225;-69
2023/01/28 15:01:18;;;;;;;;;;;;;;;2.82;100.00;100760.47;5577078;31;34897;-69
2023/01/28 15:04:25;;;;;;;;;;;;;;;2.88;100.00;100768.75;5576531;31;34267;-70
2023/01/28 15:07:34;;;;;;;;;;;;;;;2.84;100.00;100761.22;5589718;31;34889;-69
2023/01/28 15:10:40;;;;;;;;;;;;;;;2.66;100.00;100771.22;5590100;31;34448;-69
2023/01/28 15:13:55;;;;;;;;;;;;;;;2.58;100.00;100770.91;5590018;31;34387;-69
2023/01/28 15:17:02;;;;;;;;;;;;;;;2.48;100.00;100781.19;5576681;31;34191;-70
2023/01/28 15:20:17;;;;;;;;;;;;;;;2.45;100.00;100781.41;5590049;31;34193;-68
2023/01/28 15:23:38;;;;;;;;;;;;;;;2.47;100.00;100787.34;5590292;31;34401;-69
2023/01/28 15:26:46;;;;;;;;;;;;;;;2.36;100.00;100787.28;5576620;31;34905;-69
2023/01/28 15:29:55;;;;;;;;;;;;;;;2.45;100.00;100796.28;5589996;31;34900;-71
2023/01/28 15:33:05;;;;;;;;;;;;;;;2.33;100.00;100799.72;5577007;31;34161;-69
2023/01/28 15:36:13;;;;;;;;;;;;;;;2.30;100.00;100799.94;5589932;31;34178;-69
2023/01/28 15:39:23;;;;;;;;;;;;;;;2.27;100.00;100801.00;5589943;31;34321;-68
2023/01/28 15:42:30;;;;;;;;;;;;;;;2.21;100.00;100800.56;5575786;31;33784;-69
2023/01/28 15:45:44;;;;;;;;;;;;;;;2.24;100.00;100802.97;5589711;31;34876;-70
2023/01/28 15:48:58;;;;;;;;;;;;;;;2.15;100.00;100820.97;5576955;31;34205;-68
2023/01/28 15:52:06;;;;;;;;;;;;;;;2.16;100.00;100819.19;5589494;31;34057;-69
2023/01/28 15:55:30;;;;;;;;;;;;;;;2.05;100.00;100819.91;5576109;31;34665;-70
2023/01/28 15:58:42;;;;;;;;;;;;;;;2.06;100.00;100821.59;5576876;31;34253;-68
2023/01/28 16:01:51;;;;;;;;;;;;;;;1.94;100.00;100819.78;5576314;31;34278;-70
2023/01/28 16:05:02;;;;;;;;;;;;;;;2.03;100.00;100821.78;5576367;31;35446;-70
2023/01/28 16:08:11;;;;;;;;;;;;;;;1.90;100.00;100826.16;5589283;31;34686;-69
2023/01/28 16:11:27;;;;;;;;;;;;;;;1.89;100.00;100837.56;5589442;31;34178;-69
2023/01/28 16:14:48;;;;;;;;;;;;;;;1.89;100.00;100834.13;5589728;31;34334;-70
2023/01/28 16:17:56;;;;;;;;;;;;;;;1.92;100.00;100844.41;5589558;31;34297;-70
2023/01/28 16:21:03;;;;;;;;;;;;;;;1.84;100.00;100842.25;5589612;31;34896;-71
2023/01/28 16:24:24;;;;;;;;;;;;;;;1.83;100.00;100852.84;5589312;31;34444;-69
2023/01/28 16:27:31;;;;;;;;;;;;;;;1.82;100.00;100852.00;5575862;31;34949;-69
2023/01/28 16:30:41;;;;;;;;;;;;;;;1.83;100.00;100853.69;5576224;31;34382;-70
2023/01/28 16:33:49;;;;;;;;;;;;;;;1.85;100.00;100864.03;5589041;31;34776;-70
2023/01/28 16:36:57;;;;;;;;;;;;;;;1.81;100.00;100865.19;5589242;31;34278;-70
2023/01/28 16:40:14;;;;;;;;;;;;;;;1.70;100.00;100858.88;5589013;31;34492;-69
2023/01/28 16:43:22;;;;;;;;;;;;;;;1.74;100.00;100867.37;5575741;31;34210;-70
2023/01/28 16:46:30;;;;;;;;;;;;;;;1.70;100.00;100865.88;5589335;31;34248;-70
2023/01/28 16:49:38;;;;;;;;;;;;;;;1.67;100.00;100871.31;5576526;31;35042;-70
2023/01/28 16:52:47;;;;;;;;;;;;;;;1.59;100.00;100868.34;5591267;31;34888;-70